Time;durP1;ratioP1;P1;durP2;ratioP2;P2;SDS_P1;SDS_P2;PMS_P1;PMS_P2;Temp;Humidity;BMP_temperature;BMP_pressure;BME280_temperature;BME280_humidity;BME280_pressure;Samples;Min_cycle;Max_cycle;Signal;HPM_P1;HPM_P2
2023/04/29 00:01:07;;;;;;;21.27;12.82;;;;;;;;;;5053593;28;20688;-76
2023/04/29 00:03:33;;;;;;;20.92;11.77;;;;;;;;;;5054394;28;20542;-76
2023/04/29 00:05:59;;;;;;;24.60;14.10;;;;;;;;;;5036076;28;20027;-77
2023/04/29 00:08:25;;;;;;;22.65;13.27;;;;;;;;;;5036137;28;20076;-76
2023/04/29 00:10:51;;;;;;;21.02;12.95;;;;;;;;;;5053317;28;20465;-77
2023/04/29 00:13:16;;;;;;;23.92;13.68;;;;;;;;;;5053740;28;20407;-77
2023/04/29 00:15:42;;;;;;;18.45;12.70;;;;;;;;;;5035500;28;20587;-76
2023/04/29 00:18:08;;;;;;;20.48;12.40;;;;;;;;;;5052817;28;20143;-77
2023/04/29 00:20:33;;;;;;;19.75;13.00;;;;;;;;;;5034895;28;20024;-78
2023/04/29 00:22:59;;;;;;;21.45;13.18;;;;;;;;;;5052577;28;20678;-75
2023/04/29 00:25:25;;;;;;;19.38;11.95;;;;;;;;;;5052265;28;20533;-76
2023/04/29 00:27:50;;;;;;;17.08;10.50;;;;;;;;;;5052438;28;20493;-76
2023/04/29 00:30:16;;;;;;;20.90;12.40;;;;;;;;;;5034121;28;20410;-76
2023/04/29 00:32:42;;;;;;;18.42;12.70;;;;;;;;;;5052010;28;20055;-76
2023/04/29 00:35:08;;;;;;;19.08;12.18;;;;;;;;;;5052180;28;20016;-76
2023/04/29 00:37:34;;;;;;;20.90;12.60;;;;;;;;;;5051951;28;20381;-76
2023/04/29 00:39:59;;;;;;;20.48;12.75;;;;;;;;;;5051815;28;20025;-77
2023/04/29 00:42:26;;;;;;;19.33;11.43;;;;;;;;;;5033534;28;20020;-76
2023/04/29 00:44:51;;;;;;;19.95;12.10;;;;;;;;;;5052093;28;20442;-76
2023/04/29 00:47:17;;;;;;;21.00;12.27;;;;;;;;;;5033671;28;20099;-76
2023/04/29 00:49:42;;;;;;;18.27;11.95;;;;;;;;;;5033820;28;20095;-77
2023/04/29 00:52:10;;;;;;;18.02;11.60;;;;;;;;;;5033574;28;20445;-77
2023/04/29 00:54:37;;;;;;;20.13;12.13;;;;;;;;;;5033239;28;20498;-77
2023/04/29 00:57:05;;;;;;;17.15;12.00;;;;;;;;;;5051205;28;20025;-77
2023/04/29 00:59:33;;;;;;;22.42;11.70;;;;;;;;;;5051061;28;20023;-76
2023/04/29 01:02:02;;;;;;;17.35;11.60;;;;;;;;;;5051291;28;20029;-77
2023/04/29 01:04:29;;;;;;;18.48;12.02;;;;;;;;;;5033151;28;20059;-77
2023/04/29 01:07:17;;;;;;;19.25;12.55;;;;;;;;;;5050814;28;20618;-76
2023/04/29 01:10:11;;;;;;;23.98;12.20;;;;;;;;;;5050707;28;20025;-76
2023/04/29 01:12:58;;;;;;;17.98;11.85;;;;;;;;;;5050574;28;20025;-76
2023/04/29 01:15:40;;;;;;;22.45;12.00;;;;;;;;;;5050167;28;20024;-76
2023/04/29 01:18:20;;;;;;;;;;;;;;;;;;5051298;28;20358;-76
2023/04/29 01:20:46;;;;;;;19.23;12.32;;;;;;;;;;5032989;28;19908;-77
2023/04/29 01:23:11;;;;;;;21.40;12.23;;;;;;;;;;5031870;28;20495;-77
2023/04/29 01:25:38;;;;;;;20.23;13.48;;;;;;;;;;5032865;28;20032;-77
2023/04/29 01:28:26;;;;;;;26.30;13.65;;;;;;;;;;5050700;28;20049;-76
2023/04/29 01:30:51;;;;;;;22.17;13.73;;;;;;;;;;5050910;28;20369;-75
2023/04/29 01:33:58;;;;;;;22.30;13.68;;;;;;;;;;5050654;28;20106;-76
2023/04/29 01:36:39;;;;;;;20.58;12.88;;;;;;;;;;5032336;28;20029;-75
2023/04/29 01:39:31;;;;;;;24.88;13.88;;;;;;;;;;5050575;28;20020;-76
2023/04/29 01:42:07;;;;;;;22.55;13.05;;;;;;;;;;5009869;28;20057;-76
2023/04/29 01:44:42;;;;;;;22.80;12.90;;;;;;;;;;5171316;27;20377;-79
2023/04/29 01:47:12;;;;;;;20.05;12.90;;;;;;;;;;5169855;27;20541;-79
2023/04/29 01:49:38;;;;;;;20.05;13.15;;;;;;;;;;5169895;27;20616;-80
2023/04/29 01:52:04;;;;;;;21.33;12.25;;;;;;;;;;5170203;27;20385;-79
2023/04/29 01:54:31;;;;;;;21.27;13.10;;;;;;;;;;5169555;27;20033;-79
2023/04/29 01:56:57;;;;;;;24.05;13.82;;;;;;;;;;5171004;27;20031;-81
2023/04/29 01:59:23;;;;;;;21.88;12.85;;;;;;;;;;5170185;27;20026;-79
2023/04/29 02:01:48;;;;;;;23.77;14.65;;;;;;;;;;5170568;27;20109;-81
2023/04/29 02:04:14;;;;;;;23.25;14.80;;;;;;;;;;5170533;27;20465;-80
2023/04/29 02:06:41;;;;;;;22.83;14.07;;;;;;;;;;5171551;27;20436;-80
2023/04/29 02:09:06;;;;;;;25.33;13.55;;;;;;;;;;5170579;27;20027;-79
2023/04/29 02:11:32;;;;;;;24.42;13.00;;;;;;;;;;5171920;27;20027;-80
2023/04/29 02:13:57;;;;;;;22.75;14.45;;;;;;;;;;5170804;27;20026;-80
2023/04/29 02:16:23;;;;;;;22.23;13.77;;;;;;;;;;5170219;27;20019;-80
2023/04/29 02:18:49;;;;;;;21.17;13.13;;;;;;;;;;5171465;27;20106;-81
2023/04/29 02:21:15;;;;;;;20.83;13.23;;;;;;;;;;5171482;27;20170;-78
2023/04/29 02:23:40;;;;;;;21.02;13.48;;;;;;;;;;5170640;27;20113;-80
2023/04/29 02:26:06;;;;;;;22.73;14.40;;;;;;;;;;5171434;27;20042;-81
2023/04/29 02:28:36;;;;;;;24.48;13.52;;;;;;;;;;5171392;27;20081;-81
2023/04/29 02:31:01;;;;;;;25.15;14.38;;;;;;;;;;5169485;27;20030;-79
2023/04/29 02:33:27;;;;;;;20.92;14.50;;;;;;;;;;5170032;27;20022;-79
2023/04/29 02:35:52;;;;;;;24.00;14.30;;;;;;;;;;5170965;27;20474;-80
2023/04/29 02:38:18;;;;;;;20.85;13.82;;;;;;;;;;5170147;27;20026;-80
2023/04/29 02:40:46;;;;;;;29.58;15.52;;;;;;;;;;5171162;27;20030;-80
2023/04/29 02:43:11;;;;;;;25.30;14.98;;;;;;;;;;5170286;27;20333;-80
2023/04/29 02:45:39;;;;;;;31.30;14.85;;;;;;;;;;5170245;27;20534;-79
2023/04/29 02:48:05;;;;;;;25.17;14.98;;;;;;;;;;5170326;27;20037;-81
2023/04/29 02:50:31;;;;;;;25.00;14.50;;;;;;;;;;5169401;27;20091;-79
2023/04/29 02:52:57;;;;;;;31.20;17.10;;;;;;;;;;5170336;27;20471;-79
2023/04/29 02:55:22;;;;;;;28.13;15.30;;;;;;;;;;5159954;27;20023;-81
2023/04/29 02:57:48;;;;;;;31.48;16.35;;;;;;;;;;5156082;27;20027;-80
2023/04/29 03:00:14;;;;;;;25.90;15.43;;;;;;;;;;5155165;27;20042;-79
2023/04/29 03:02:40;;;;;;;24.92;15.77;;;;;;;;;;5156729;27;20066;-79
2023/04/29 03:05:06;;;;;;;25.65;16.33;;;;;;;;;;5156944;27;20050;-79
2023/04/29 03:07:31;;;;;;;32.22;16.92;;;;;;;;;;5155019;27;20045;-79
2023/04/29 03:09:57;;;;;;;31.02;15.82;;;;;;;;;;5154713;27;20038;-79
2023/04/29 03:12:23;;;;;;;28.88;16.55;;;;;;;;;;5154297;27;20367;-80
2023/04/29 03:14:50;;;;;;;23.65;15.75;;;;;;;;;;5155617;27;20098;-80
2023/04/29 03:17:16;;;;;;;29.02;16.48;;;;;;;;;;5155435;27;20052;-79
2023/04/29 03:19:42;;;;;;;23.90;14.68;;;;;;;;;;5156529;27;20041;-79
2023/04/29 03:22:10;;;;;;;31.52;17.25;;;;;;;;;;5155281;27;20445;-79
2023/04/29 03:24:36;;;;;;;33.63;16.52;;;;;;;;;;5154850;27;20023;-79
2023/04/29 03:27:03;;;;;;;25.55;15.07;;;;;;;;;;5154722;27;20103;-79
2023/04/29 03:29:29;;;;;;;26.65;17.15;;;;;;;;;;5154269;27;20057;-77
2023/04/29 03:31:55;;;;;;;27.30;15.90;;;;;;;;;;5154699;27;20038;-79
2023/04/29 03:34:21;;;;;;;29.20;15.48;;;;;;;;;;5156528;27;20110;-81
2023/04/29 03:36:47;;;;;;;31.13;17.10;;;;;;;;;;5154238;27;20058;-79
2023/04/29 03:39:12;;;;;;;26.88;16.38;;;;;;;;;;5156102;27;20435;-79
2023/04/29 03:41:38;;;;;;;30.30;15.70;;;;;;;;;;5154617;27;20477;-81
2023/04/29 03:44:04;;;;;;;26.65;15.60;;;;;;;;;;5156692;27;20050;-80
2023/04/29 03:46:31;;;;;;;30.60;16.25;;;;;;;;;;5154430;27;20022;-79
2023/04/29 03:48:56;;;;;;;28.88;17.45;;;;;;;;;;5155543;27;20473;-80
2023/04/29 03:51:23;;;;;;;27.10;16.48;;;;;;;;;;5154967;27;20076;-81
2023/04/29 03:53:50;;;;;;;26.20;16.27;;;;;;;;;;5155868;27;20194;-80
2023/04/29 03:56:16;;;;;;;30.45;16.33;;;;;;;;;;5154139;27;20087;-80
2023/04/29 03:58:43;;;;;;;34.10;18.23;;;;;;;;;;5154455;27;20158;-80
2023/04/29 04:01:10;;;;;;;33.45;17.83;;;;;;;;;;5154526;27;20038;-78
2023/04/29 04:03:36;;;;;;;31.88;17.00;;;;;;;;;;5154318;27;20405;-78
2023/04/29 04:06:02;;;;;;;33.20;18.40;;;;;;;;;;5154263;27;20208;-80
2023/04/29 04:08:27;;;;;;;37.85;17.08;;;;;;;;;;5153609;27;20478;-80
2023/04/29 04:10:53;;;;;;;35.55;18.45;;;;;;;;;;5153612;27;20058;-79
2023/04/29 04:13:18;;;;;;;32.20;17.73;;;;;;;;;;5153571;27;20019;-79
2023/04/29 04:15:50;;;;;;;37.65;20.90;;;;;;;;;;5153065;27;20041;-80
2023/04/29 04:18:18;;;;;;;33.88;18.17;;;;;;;;;;5153844;27;20030;-80
2023/04/29 04:20:45;;;;;;;31.25;17.08;;;;;;;;;;5153071;27;20110;-79
2023/04/29 04:23:10;;;;;;;31.55;18.08;;;;;;;;;;5153289;27;20038;-79
2023/04/29 04:25:36;;;;;;;32.67;18.92;;;;;;;;;;5153031;27;20023;-79
2023/04/29 04:28:01;;;;;;;29.08;17.70;;;;;;;;;;5153267;27;20473;-79
2023/04/29 04:30:27;;;;;;;32.28;18.25;;;;;;;;;;5152959;27;20470;-79
2023/04/29 04:32:52;;;;;;;31.42;18.60;;;;;;;;;;5148400;27;20029;-80
2023/04/29 04:35:18;;;;;;;33.28;18.88;;;;;;;;;;5132725;27;20027;-79
2023/04/29 04:37:43;;;;;;;29.45;17.25;;;;;;;;;;5132255;27;20031;-80
2023/04/29 04:40:10;;;;;;;35.13;19.38;;;;;;;;;;5132093;27;20051;-78
2023/04/29 04:42:36;;;;;;;34.80;19.10;;;;;;;;;;5122698;27;20183;-80
2023/04/29 04:45:02;;;;;;;35.72;19.58;;;;;;;;;;5112582;28;20039;-80
2023/04/29 04:47:28;;;;;;;37.28;19.23;;;;;;;;;;5118707;27;20027;-80
2023/04/29 04:49:53;;;;;;;37.20;20.17;;;;;;;;;;5133409;27;20083;-80
2023/04/29 04:52:20;;;;;;;36.80;19.50;;;;;;;;;;5132348;27;20031;-79
2023/04/29 04:54:46;;;;;;;39.28;19.92;;;;;;;;;;5114428;27;20126;-80
2023/04/29 04:57:12;;;;;;;39.58;19.73;;;;;;;;;;5131270;27;20063;-78
2023/04/29 04:59:37;;;;;;;33.97;18.90;;;;;;;;;;5133352;27;20023;-79
2023/04/29 05:02:03;;;;;;;36.83;18.50;;;;;;;;;;5132990;27;20388;-79
2023/04/29 05:04:28;;;;;;;32.65;19.63;;;;;;;;;;5132606;27;20038;-80
2023/04/29 05:06:54;;;;;;;29.85;17.83;;;;;;;;;;5132189;27;20379;-79
2023/04/29 05:09:20;;;;;;;37.03;18.67;;;;;;;;;;5131602;27;20349;-78
2023/04/29 05:11:45;;;;;;;28.40;17.73;;;;;;;;;;5131263;27;20023;-79
2023/04/29 05:14:11;;;;;;;31.15;18.67;;;;;;;;;;5132058;27;20023;-81
2023/04/29 05:16:37;;;;;;;31.55;19.83;;;;;;;;;;5131549;27;20061;-79
2023/04/29 05:19:02;;;;;;;33.72;19.42;;;;;;;;;;5132455;27;20071;-79
2023/04/29 05:21:28;;;;;;;30.88;19.05;;;;;;;;;;5132467;27;20042;-81
2023/04/29 05:23:54;;;;;;;34.28;19.77;;;;;;;;;;5130949;27;20058;-79
2023/04/29 05:26:20;;;;;;;34.00;20.35;;;;;;;;;;5131050;27;20061;-79
2023/04/29 05:28:45;;;;;;;36.60;21.15;;;;;;;;;;5131894;27;20023;-80
2023/04/29 05:31:11;;;;;;;33.97;19.70;;;;;;;;;;5131003;27;20127;-79
2023/04/29 05:33:37;;;;;;;35.05;19.58;;;;;;;;;;5130796;27;20023;-79
2023/04/29 05:36:02;;;;;;;31.27;18.80;;;;;;;;;;5131812;27;20058;-79
2023/04/29 05:38:28;;;;;;;30.80;17.77;;;;;;;;;;5131120;27;20039;-80
2023/04/29 05:40:55;;;;;;;32.33;18.30;;;;;;;;;;5130780;27;20438;-80
2023/04/29 05:43:20;;;;;;;24.75;16.73;;;;;;;;;;5130582;28;20130;-79
2023/04/29 05:45:46;;;;;;;28.25;16.73;;;;;;;;;;5131900;28;20475;-80
2023/04/29 05:48:12;;;;;;;25.10;17.02;;;;;;;;;;5131701;28;20414;-80
2023/04/29 05:50:38;;;;;;;26.00;15.50;;;;;;;;;;5130874;28;20031;-79
2023/04/29 05:53:03;;;;;;;27.00;16.58;;;;;;;;;;5131221;28;20508;-78
2023/04/29 05:55:29;;;;;;;24.83;16.65;;;;;;;;;;5131547;28;20030;-81
2023/04/29 05:57:55;;;;;;;24.88;16.65;;;;;;;;;;5133316;27;20359;-79
2023/04/29 06:00:21;;;;;;;26.83;16.08;;;;;;;;;;5132030;28;20023;-79
2023/04/29 06:02:47;;;;;;;25.70;15.82;;;;;;;;;;5133106;28;20571;-80
2023/04/29 06:05:13;;;;;;;22.88;14.90;;;;;;;;;;5132575;28;20038;-80
2023/04/29 06:07:41;;;;;;;22.75;14.45;;;;;;;;;;5133411;27;20487;-80
2023/04/29 06:10:07;;;;;;;24.67;14.95;;;;;;;;;;5115183;28;20478;-80
2023/04/29 06:12:33;;;;;;;25.58;16.55;;;;;;;;;;5132480;27;20034;-80
2023/04/29 06:14:58;;;;;;;33.13;19.75;;;;;;;;;;5132529;28;20023;-79
2023/04/29 06:17:24;;;;;;;31.70;18.75;;;;;;;;;;5132574;27;20026;-80
2023/04/29 06:19:50;;;;;;;26.35;16.83;;;;;;;;;;5131478;28;20118;-79
2023/04/29 06:22:16;;;;;;;24.88;17.05;;;;;;;;;;5131920;27;20538;-80
2023/04/29 06:24:41;;;;;;;23.75;14.63;;;;;;;;;;5132410;28;20095;-79
2023/04/29 06:27:07;;;;;;;20.73;14.57;;;;;;;;;;5132900;27;20099;-80
2023/04/29 06:29:32;;;;;;;23.17;14.73;;;;;;;;;;5131859;27;20023;-80
2023/04/29 06:31:58;;;;;;;19.60;13.73;;;;;;;;;;5135465;27;20031;-80
2023/04/29 06:34:23;;;;;;;23.85;15.13;;;;;;;;;;5135369;27;20021;-79
2023/04/29 06:36:49;;;;;;;27.67;16.13;;;;;;;;;;5134336;27;20059;-79
2023/04/29 06:39:14;;;;;;;25.42;15.80;;;;;;;;;;5136770;27;20018;-80
2023/04/29 06:41:40;;;;;;;22.13;14.93;;;;;;;;;;5135439;27;20060;-80
2023/04/29 06:44:05;;;;;;;24.10;15.77;;;;;;;;;;5134947;27;20043;-79
2023/04/29 06:46:31;;;;;;;23.02;16.30;;;;;;;;;;5134664;27;20034;-79
2023/04/29 06:48:56;;;;;;;24.73;15.95;;;;;;;;;;5136199;27;20084;-80
2023/04/29 06:51:23;;;;;;;23.42;14.73;;;;;;;;;;5135943;27;20034;-80
2023/04/29 06:53:49;;;;;;;21.73;13.85;;;;;;;;;;5135925;27;20026;-80
2023/04/29 06:56:14;;;;;;;19.65;13.52;;;;;;;;;;5135606;27;20031;-81
2023/04/29 06:58:40;;;;;;;22.55;13.23;;;;;;;;;;5136513;27;20031;-79
2023/04/29 07:01:07;;;;;;;20.73;13.07;;;;;;;;;;5135570;27;20027;-79
2023/04/29 07:03:33;;;;;;;18.13;13.27;;;;;;;;;;5134368;27;20031;-80
2023/04/29 07:05:58;;;;;;;17.83;11.70;;;;;;;;;;5135021;27;20045;-81
2023/04/29 07:08:24;;;;;;;20.85;12.20;;;;;;;;;;5134857;27;20054;-80
2023/04/29 07:10:55;;;;;;;18.35;12.20;;;;;;;;;;5134453;27;20030;-79
2023/04/29 07:13:21;;;;;;;14.93;11.48;;;;;;;;;;5135729;27;20095;-80
2023/04/29 07:15:47;;;;;;;15.02;10.98;;;;;;;;;;5116620;27;20039;-80
2023/04/29 07:18:12;;;;;;;16.95;11.07;;;;;;;;;;5134259;27;20423;-80
2023/04/29 07:20:38;;;;;;;14.68;10.25;;;;;;;;;;5134266;27;20093;-80
2023/04/29 07:23:04;;;;;;;15.18;10.63;;;;;;;;;;5135504;27;20355;-80
2023/04/29 07:25:30;;;;;;;14.63;10.15;;;;;;;;;;5135884;27;20019;-80
2023/04/29 07:27:56;;;;;;;16.35;10.02;;;;;;;;;;5134285;27;20016;-80
2023/04/29 07:30:22;;;;;;;13.52;9.32;;;;;;;;;;5136367;27;20059;-80
2023/04/29 07:32:48;;;;;;;13.80;9.35;;;;;;;;;;5135710;27;20534;-79
2023/04/29 07:35:13;;;;;;;13.43;9.70;;;;;;;;;;5134854;27;20098;-80
2023/04/29 07:37:40;;;;;;;11.98;9.13;;;;;;;;;;5135871;27;20478;-80
2023/04/29 07:40:06;;;;;;;13.40;9.52;;;;;;;;;;5134590;27;20053;-80
2023/04/29 07:42:32;;;;;;;10.55;7.78;;;;;;;;;;5133939;27;20046;-79
2023/04/29 07:44:58;;;;;;;10.57;5.85;;;;;;;;;;5139322;27;20060;-79
2023/04/29 07:47:24;;;;;;;6.97;4.35;;;;;;;;;;5138587;27;20023;-79
2023/04/29 07:49:50;;;;;;;8.45;4.90;;;;;;;;;;5135133;27;20539;-80
2023/04/29 07:52:18;;;;;;;5.20;3.88;;;;;;;;;;5138121;27;20027;-81
2023/04/29 07:54:44;;;;;;;8.07;4.20;;;;;;;;;;5136365;27;20062;-80
2023/04/29 07:57:09;;;;;;;3.88;3.50;;;;;;;;;;5134102;27;20504;-79
2023/04/29 07:59:35;;;;;;;4.70;3.92;;;;;;;;;;5134789;27;20505;-80
2023/04/29 08:02:01;;;;;;;5.35;3.95;;;;;;;;;;5134405;27;20023;-77
2023/04/29 08:04:26;;;;;;;4.40;3.63;;;;;;;;;;5133624;27;20019;-78
2023/04/29 08:06:52;;;;;;;5.43;3.90;;;;;;;;;;5134740;27;20039;-79
2023/04/29 08:09:17;;;;;;;4.88;3.78;;;;;;;;;;5135353;27;20027;-80
2023/04/29 08:11:44;;;;;;;4.35;3.00;;;;;;;;;;5133706;27;20048;-79
2023/04/29 08:14:10;;;;;;;5.30;3.65;;;;;;;;;;5135532;27;20022;-79
2023/04/29 08:16:36;;;;;;;4.95;4.00;;;;;;;;;;5133691;27;20122;-80
2023/04/29 08:19:02;;;;;;;5.45;3.92;;;;;;;;;;5134972;27;20027;-79
2023/04/29 08:21:28;;;;;;;4.65;3.88;;;;;;;;;;5134285;27;20019;-79
2023/04/29 08:23:54;;;;;;;3.58;3.25;;;;;;;;;;5132895;27;20015;-79
2023/04/29 08:26:21;;;;;;;5.90;4.03;;;;;;;;;;5135386;27;20041;-78
2023/04/29 08:28:47;;;;;;;3.80;2.97;;;;;;;;;;5134443;27;20493;-80
2023/04/29 08:31:20;;;;;;;3.67;3.13;;;;;;;;;;5133666;27;20122;-79
2023/04/29 08:33:46;;;;;;;4.25;3.03;;;;;;;;;;5133957;27;20486;-79
2023/04/29 08:36:14;;;;;;;5.15;3.47;;;;;;;;;;5134133;27;20294;-80
2023/04/29 08:38:40;;;;;;;4.30;3.28;;;;;;;;;;5135589;27;20470;-79
2023/04/29 08:41:10;;;;;;;4.47;2.78;;;;;;;;;;5136063;27;20261;-80
2023/04/29 08:43:36;;;;;;;3.80;3.40;;;;;;;;;;5135722;27;20096;-80
2023/04/29 08:46:03;;;;;;;3.20;2.90;;;;;;;;;;5135488;27;20027;-80
2023/04/29 08:48:29;;;;;;;3.60;3.03;;;;;;;;;;5134937;27;20023;-81
2023/04/29 08:50:57;;;;;;;3.67;3.15;;;;;;;;;;5134134;27;20034;-79
2023/04/29 08:53:23;;;;;;;5.15;3.75;;;;;;;;;;5133920;27;20492;-81
2023/04/29 08:55:49;;;;;;;5.93;3.70;;;;;;;;;;5134480;27;20034;-80
2023/04/29 08:58:15;;;;;;;6.20;3.72;;;;;;;;;;5136228;27;20026;-80
2023/04/29 09:00:42;;;;;;;4.82;3.78;;;;;;;;;;5135569;27;20474;-81
2023/04/29 09:03:30;;;;;;;7.03;4.20;;;;;;;;;;5134481;27;20023;-80
2023/04/29 09:05:59;;;;;;;8.60;4.35;;;;;;;;;;5135608;27;20019;-83
2023/04/29 09:08:26;;;;;;;7.30;5.13;;;;;;;;;;5133334;27;20031;-80
2023/04/29 09:10:53;;;;;;;8.27;5.05;;;;;;;;;;5133876;27;20152;-80
2023/04/29 09:13:26;;;;;;;7.38;5.30;;;;;;;;;;5135424;27;20023;-81
2023/04/29 09:15:53;;;;;;;7.35;5.28;;;;;;;;;;5134468;27;20568;-81
2023/04/29 09:18:48;;;;;;;10.18;6.38;;;;;;;;;;5134467;27;20106;-81
2023/04/29 09:21:20;;;;;;;12.70;7.03;;;;;;;;;;5133416;27;20015;-80
2023/04/29 09:23:47;;;;;;;10.93;7.20;;;;;;;;;;5135512;27;20415;-79
2023/04/29 09:26:14;;;;;;;7.13;5.63;;;;;;;;;;5134538;27;20172;-79
2023/04/29 09:28:42;;;;;;;12.30;6.95;;;;;;;;;;5132511;27;20056;-81
2023/04/29 09:31:10;;;;;;;11.02;8.32;;;;;;;;;;5132759;27;20083;-80
2023/04/29 09:33:53;;;;;;;12.18;8.13;;;;;;;;;;5133356;27;20022;-80
2023/04/29 09:36:40;;;;;;;13.52;8.85;;;;;;;;;;5132504;27;20019;-79
2023/04/29 09:39:12;;;;;;;14.95;9.15;;;;;;;;;;5133614;27;20023;-80
2023/04/29 09:41:51;;;;;;;11.15;6.47;;;;;;;;;;5133188;27;20458;-80
2023/04/29 09:44:17;;;;;;;7.50;5.45;;;;;;;;;;5132188;28;20040;-78
2023/04/29 09:46:43;;;;;;;6.30;4.90;;;;;;;;;;5133474;27;20031;-81
2023/04/29 09:49:31;;;;;;;8.60;6.07;;;;;;;;;;5133356;27;20026;-80
2023/04/29 09:52:02;;;;;;;10.10;4.80;;;;;;;;;;5133732;28;20034;-80
2023/04/29 09:54:32;;;;;;;8.32;4.40;;;;;;;;;;5133234;28;20056;-79
2023/04/29 09:57:05;;;;;;;5.60;4.82;;;;;;;;;;5133429;28;20031;-79
2023/04/29 09:59:34;;;;;;;7.90;5.15;;;;;;;;;;5133611;28;20023;-80
2023/04/29 10:02:06;;;;;;;6.90;4.72;;;;;;;;;;5133421;28;20031;-80
2023/04/29 10:04:34;;;;;;;7.43;4.63;;;;;;;;;;5132849;27;20062;-79
2023/04/29 10:07:02;;;;;;;6.05;4.45;;;;;;;;;;5137774;27;20300;-81
2023/04/29 10:09:29;;;;;;;4.75;3.85;;;;;;;;;;5137523;27;20027;-81
2023/04/29 10:11:55;;;;;;;5.97;4.20;;;;;;;;;;5137872;27;20546;-82
2023/04/29 10:14:26;;;;;;;4.80;3.40;;;;;;;;;;5137774;27;20019;-79
2023/04/29 10:17:08;;;;;;;4.50;2.08;;;;;;;;;;5136460;27;20033;-81
2023/04/29 10:20:06;;;;;;;3.13;1.95;;;;;;;;;;5136469;27;20118;-80
2023/04/29 10:22:44;;;;;;;3.45;2.13;;;;;;;;;;5136184;27;20482;-79
2023/04/29 10:25:11;;;;;;;5.40;2.67;;;;;;;;;;5137074;27;20034;-79
2023/04/29 10:27:38;;;;;;;2.90;2.30;;;;;;;;;;5135410;27;20038;-81
2023/04/29 10:30:08;;;;;;;2.95;2.17;;;;;;;;;;5137639;27;20026;-82
2023/04/29 10:32:34;;;;;;;3.20;2.45;;;;;;;;;;5137041;27;20027;-80
2023/04/29 10:35:01;;;;;;;3.08;2.47;;;;;;;;;;5138716;27;20061;-81
2023/04/29 10:37:26;;;;;;;3.85;2.75;;;;;;;;;;5138157;27;20446;-80
2023/04/29 10:40:07;;;;;;;2.47;1.90;;;;;;;;;;5137881;27;20027;-80
2023/04/29 10:42:45;;;;;;;3.13;2.00;;;;;;;;;;5136415;27;20478;-81
2023/04/29 10:45:30;;;;;;;4.90;2.42;;;;;;;;;;5137292;27;20035;-81
2023/04/29 10:48:05;;;;;;;3.80;2.60;;;;;;;;;;5139438;27;20466;-80
2023/04/29 10:50:32;;;;;;;4.05;2.17;;;;;;;;;;5137167;27;20056;-80
2023/04/29 10:53:01;;;;;;;3.22;1.88;;;;;;;;;;5137850;27;20020;-81
2023/04/29 10:55:28;;;;;;;2.60;2.15;;;;;;;;;;5119449;27;20068;-81
2023/04/29 10:57:56;;;;;;;2.60;1.98;;;;;;;;;;5137165;27;20080;-81
2023/04/29 11:00:29;;;;;;;3.35;2.25;;;;;;;;;;5137768;27;20118;-80
2023/04/29 11:02:57;;;;;;;2.35;1.90;;;;;;;;;;5137238;27;20027;-81
2023/04/29 11:05:34;;;;;;;6.75;2.95;;;;;;;;;;5135925;27;20471;-81
2023/04/29 11:08:23;;;;;;;3.53;2.80;;;;;;;;;;5136268;27;20023;-80
2023/04/29 11:10:52;;;;;;;3.88;2.80;;;;;;;;;;5135790;27;20475;-80
2023/04/29 11:13:32;;;;;;;3.85;2.80;;;;;;;;;;5135257;27;20015;-80
2023/04/29 11:16:08;;;;;;;4.13;2.65;;;;;;;;;;5135632;27;20058;-80
2023/04/29 11:19:03;;;;;;;2.53;1.77;;;;;;;;;;5136197;27;20110;-80
2023/04/29 11:21:31;;;;;;;3.88;2.28;;;;;;;;;;5135702;27;20328;-80
2023/04/29 11:23:57;;;;;;;2.13;1.92;;;;;;;;;;5136435;27;20047;-81
2023/04/29 11:26:23;;;;;;;2.75;2.25;;;;;;;;;;5136267;27;20111;-79
2023/04/29 11:28:50;;;;;;;2.92;2.50;;;;;;;;;;5135292;27;20386;-81
2023/04/29 11:31:16;;;;;;;4.90;2.53;;;;;;;;;;5136790;27;20015;-81
2023/04/29 11:33:42;;;;;;;3.20;2.47;;;;;;;;;;5135525;27;20029;-80
2023/04/29 11:36:10;;;;;;;5.63;2.75;;;;;;;;;;5135656;27;20091;-80
2023/04/29 11:38:39;;;;;;;5.72;3.40;;;;;;;;;;5135996;27;20444;-80
2023/04/29 11:41:05;;;;;;;7.28;4.13;;;;;;;;;;5134336;27;20336;-80
2023/04/29 11:43:31;;;;;;;7.63;4.10;;;;;;;;;;5135356;27;20051;-79
2023/04/29 11:45:56;;;;;;;8.55;3.90;;;;;;;;;;5133723;27;20023;-80
2023/04/29 11:48:23;;;;;;;6.05;3.58;;;;;;;;;;5135154;27;20501;-80
2023/04/29 11:50:55;;;;;;;5.80;3.50;;;;;;;;;;5133774;27;20424;-80
2023/04/29 11:53:24;;;;;;;4.43;2.90;;;;;;;;;;5134936;27;20030;-80
2023/04/29 11:55:52;;;;;;;8.80;4.15;;;;;;;;;;5133744;27;20058;-80
2023/04/29 11:58:20;;;;;;;7.65;5.13;;;;;;;;;;5134106;27;20477;-80
2023/04/29 12:00:50;;;;;;;4.95;3.50;;;;;;;;;;5133569;27;20389;-80
2023/04/29 12:03:18;;;;;;;12.03;4.90;;;;;;;;;;5133849;27;20023;-79
2023/04/29 12:05:51;;;;;;;10.07;3.75;;;;;;;;;;5133973;27;20030;-79
2023/04/29 12:08:24;;;;;;;5.93;3.45;;;;;;;;;;5133604;27;20027;-78
2023/04/29 12:10:51;;;;;;;6.03;3.20;;;;;;;;;;5135127;27;20037;-81
2023/04/29 12:13:18;;;;;;;4.35;3.95;;;;;;;;;;5134357;27;20470;-81
2023/04/29 12:15:49;;;;;;;5.20;3.72;;;;;;;;;;5134219;27;20037;-81
2023/04/29 12:18:16;;;;;;;5.35;4.45;;;;;;;;;;5135336;27;20534;-80
2023/04/29 12:20:43;;;;;;;4.32;3.42;;;;;;;;;;5134155;27;20027;-80
2023/04/29 12:23:15;;;;;;;8.80;4.88;;;;;;;;;;5133884;27;20027;-80
2023/04/29 12:25:41;;;;;;;6.57;3.50;;;;;;;;;;5133299;27;20019;-80
2023/04/29 12:28:13;;;;;;;3.63;2.65;;;;;;;;;;5133967;27;20102;-79
2023/04/29 12:30:39;;;;;;;7.22;3.47;;;;;;;;;;5135078;27;20437;-81
2023/04/29 12:33:08;;;;;;;7.00;2.83;;;;;;;;;;5134190;27;20050;-81
2023/04/29 12:35:35;;;;;;;5.10;2.92;;;;;;;;;;5134030;27;20122;-80
2023/04/29 12:38:01;;;;;;;4.97;2.70;;;;;;;;;;5133753;27;20429;-80
2023/04/29 12:40:27;;;;;;;2.50;2.30;;;;;;;;;;5133521;27;20027;-79
2023/04/29 12:42:53;;;;;;;4.15;2.50;;;;;;;;;;5135458;27;20047;-80
2023/04/29 12:45:45;;;;;;;2.83;2.10;;;;;;;;;;5132909;27;20031;-80
2023/04/29 12:48:12;;;;;;;5.10;3.10;;;;;;;;;;5131340;27;20420;-80
2023/04/29 12:50:38;;;;;;;2.38;1.88;;;;;;;;;;5134380;27;20054;-79
2023/04/29 12:53:06;;;;;;;2.25;2.05;;;;;;;;;;5134188;27;20515;-80
2023/04/29 12:55:36;;;;;;;3.47;2.30;;;;;;;;;;5133135;27;20019;-80
2023/04/29 12:58:04;;;;;;;4.53;1.77;;;;;;;;;;5134306;27;20034;-80
2023/04/29 13:00:30;;;;;;;1.73;1.60;;;;;;;;;;5116045;27;20085;-81
2023/04/29 13:02:56;;;;;;;2.15;1.15;;;;;;;;;;5133009;27;20023;-80
2023/04/29 13:05:21;;;;;;;2.80;1.33;;;;;;;;;;5133273;27;20394;-79
2023/04/29 13:07:48;;;;;;;1.50;0.80;;;;;;;;;;5133721;27;20023;-79
2023/04/29 13:10:15;;;;;;;0.88;0.85;;;;;;;;;;5132794;27;20096;-81
2023/04/29 13:12:46;;;;;;;1.02;0.73;;;;;;;;;;5136533;27;20026;-79
2023/04/29 13:15:18;;;;;;;0.93;0.80;;;;;;;;;;5136644;27;20034;-80
2023/04/29 13:17:44;;;;;;;;;;;;;;;;;;5134959;27;20130;-80
2023/04/29 13:20:10;;;;;;;6.43;0.90;;;;;;;;;;5134520;27;19942;-78
2023/04/29 13:22:36;;;;;;;5.63;0.95;;;;;;;;;;5135084;27;20486;-79
2023/04/29 13:25:03;;;;;;;1.95;0.80;;;;;;;;;;5135138;27;20015;-79
2023/04/29 13:27:29;;;;;;;3.92;1.23;;;;;;;;;;5136142;27;20038;-79
2023/04/29 13:29:55;;;;;;;1.45;1.35;;;;;;;;;;5134706;27;20497;-81
2023/04/29 13:32:23;;;;;;;2.08;1.10;;;;;;;;;;5134302;27;20033;-80
2023/04/29 13:34:51;;;;;;;2.42;1.15;;;;;;;;;;5136406;27;20051;-80
2023/04/29 13:37:19;;;;;;;3.13;1.20;;;;;;;;;;5134998;27;20450;-79
2023/04/29 13:39:45;;;;;;;1.95;1.60;;;;;;;;;;5136076;27;20039;-80
2023/04/29 13:42:10;;;;;;;8.00;6.32;;;;;;;;;;5135088;27;20023;-79
2023/04/29 13:44:43;;;;;;;2.40;2.08;;;;;;;;;;5134661;28;20051;-80
2023/04/29 13:47:11;;;;;;;2.47;1.35;;;;;;;;;;5136721;27;20024;-80
2023/04/29 13:49:41;;;;;;;2.40;2.20;;;;;;;;;;5156381;27;20027;-81
2023/04/29 13:52:07;;;;;;;2.20;2.00;;;;;;;;;;5153829;27;20029;-78
2023/04/29 13:54:33;;;;;;;7.80;5.53;;;;;;;;;;5152822;27;20406;-80
2023/04/29 13:57:07;;;;;;;5.47;2.53;;;;;;;;;;5156989;27;20118;-80
2023/04/29 13:59:41;;;;;;;3.40;3.08;;;;;;;;;;5155662;27;20030;-80
2023/04/29 14:02:07;;;;;;;4.25;3.83;;;;;;;;;;5154201;27;20034;-81
2023/04/29 14:04:33;;;;;;;4.32;3.92;;;;;;;;;;5154975;27;20030;-80
2023/04/29 14:06:58;;;;;;;4.18;3.72;;;;;;;;;;5152390;27;20022;-80
2023/04/29 14:09:25;;;;;;;7.30;4.47;;;;;;;;;;5152303;27;20026;-81
2023/04/29 14:11:51;;;;;;;5.03;4.07;;;;;;;;;;5154142;27;20038;-81
2023/04/29 14:14:17;;;;;;;4.32;3.92;;;;;;;;;;5152920;27;20038;-80
2023/04/29 14:16:43;;;;;;;4.38;3.97;;;;;;;;;;5153915;27;20033;-80
2023/04/29 14:19:08;;;;;;;4.85;4.35;;;;;;;;;;5152495;27;20018;-79
2023/04/29 14:21:34;;;;;;;4.70;3.92;;;;;;;;;;5152655;27;20488;-80
2023/04/29 14:24:02;;;;;;;4.07;3.67;;;;;;;;;;5153420;27;20055;-80
2023/04/29 14:26:28;;;;;;;6.40;3.60;;;;;;;;;;5152559;27;20109;-79
2023/04/29 14:28:57;;;;;;;4.90;3.90;;;;;;;;;;5153659;27;20018;-80
2023/04/29 14:31:27;;;;;;;4.40;3.55;;;;;;;;;;5153235;27;20061;-79
2023/04/29 14:33:53;;;;;;;5.13;3.97;;;;;;;;;;5152425;27;20022;-79